Latest Weather Observations for Winton

IDQ60801

Issued at 2:35 pm EST Wednesday 3 September 2014 (issued every 30 minutes, with the page automatically refreshed every 10 minutes)

About weather observations | Map of weather stations | Latest weather observations for QLD | Other Formats
Station Details ID: 037039 Name: WINTON AIRPORT Lat: -22.36 Lon: 143.08 Height: 192.2 m
Data from the previous 72 hours. | See also: Recent months at Winton
Date/Time
EST
Temp
°C
App
Temp
°C
Dew
Point
Rel
Hum
%
Delta-T
°C
Wind Press
QNH
hPa
Press
MSL
hPa
Rain
since 9 am
mm
Dir
 
Spd
km/h
Gust
km/h
Spd
kts
Gust
kts
03/02:30pm 23.0 17.5 -5.0 15 11.6 SE 15 22 8 12 1017.1 1016.2 0.0
03/02:00pm 22.6 18.4 -3.7 17 11.1 S 9 19 5 10 1017.6 1016.7 0.0
03/01:30pm 22.3 17.0 -3.9 17 11.0 SE 15 28 8 15 1018.1 1017.3 0.0
03/01:00pm 22.3 17.1 -2.4 19 10.7 SE 15 24 8 13 1019.1 1018.3 0.0
03/12:30pm 20.5 14.9 -2.5 21 9.8 SE 17 30 9 16 1019.4 1018.6 0.0
03/12:00pm 20.2 14.3 -2.2 22 9.6 SE 19 28 10 15 1019.7 1018.9 0.0
03/11:30am 19.9 13.9 -1.2 24 9.2 SE 20 35 11 19 1020.5 1019.7 0.0
03/11:00am 18.9 12.2 -1.0 26 8.6 SE 24 35 13 19 1021.0 1020.2 0.0
03/10:30am 18.3 10.9 -1.0 27 8.3 ESE 28 39 15 21 1021.3 1020.5 0.0
03/10:00am 17.6 9.5 -0.6 29 7.8 ESE 32 41 17 22 1021.7 1020.8 0.0
03/09:30am 16.7 8.3 -0.9 30 7.5 SE 33 43 18 23 1022.0 1021.1 0.0
03/09:00am 16.0 7.2 -1.1 31 7.2 SE 35 43 19 23 1022.0 1021.1 0.0
03/08:30am 15.4 7.5 -1.2 32 6.9 SE 30 39 16 21 1021.9 1021.0 0.0
03/08:18am 15.1 7.6 -1.5 32 6.9 SE 28 37 15 20 1021.8 1020.9 0.0
03/08:00am 13.0 9.0 -2.5 34 6.1 S 9 13 5 7 1021.8 1020.9 0.0
03/07:30am 10.9 7.4 -3.2 37 5.4 SSW 6 7 3 4 1021.9 1021.0 0.0
03/07:00am 8.7 4.8 -4.8 38 4.8 S 7 9 4 5 1021.1 1020.3 0.0
03/06:30am 9.7 5.5 -4.3 37 5.1 S 9 13 5 7 1020.8 1020.0 0.0
03/06:00am 11.8 6.9 -3.5 34 5.8 SSE 13 19 7 10 1020.5 1019.7 0.0
03/05:30am 12.6 7.0 -2.8 34 6.0 SSE 17 24 9 13 1019.8 1019.0 0.0
03/05:00am 11.1 6.5 -3.8 35 5.6 SSE 11 17 6 9 1019.5 1018.7 0.0
03/04:30am 10.6 6.7 -4.6 34 5.6 S 7 9 4 5 1019.4 1018.6 0.0
03/04:00am 11.1 6.5 -4.5 33 5.8 S 11 13 6 7 1018.9 1018.1 0.0
03/03:30am 10.3 5.2 -4.9 34 5.5 S 13 15 7 8 1019.2 1018.4 0.0
03/03:00am 11.1 6.8 -4.9 32 5.9 S 9 13 5 7 1019.3 1018.5 0.0
03/02:30am 12.7 8.1 -4.0 31 6.4 S 11 15 6 8 1019.4 1018.6 0.0
03/02:00am 13.0 8.1 -3.3 32 6.3 S 13 15 7 8 1019.5 1018.7 0.0
03/01:30am 13.1 8.9 -3.6 31 6.5 S 9 13 5 7 1019.6 1018.8 0.0
03/01:00am 13.3 8.4 -3.4 31 6.5 S 13 15 7 8 1019.7 1018.9 0.0
03/12:30am 14.0 8.7 -3.3 30 6.8 S 15 17 8 9 1019.8 1019.0 0.0
03/12:00am 15.1 9.9 -2.8 29 7.2 S 15 19 8 10 1019.8 1019.0 0.0
 
Date/Time
EST
Temp
°C
App
Temp
°C
Dew
Point
Rel
Hum
%
Delta-T
°C
Wind Press
QNH
hPa
Press
MSL
hPa
Rain
since 9 am
mm
Dir
 
Spd
km/h
Gust
km/h
Spd
kts
Gust
kts
02/11:30pm 13.8 9.2 -3.9 29 6.9 SSW 11 13 6 7 1019.9 1019.1 0.0
02/11:00pm 14.1 9.1 -4.1 28 7.0 SSW 13 15 7 8 1019.9 1019.1 0.0
02/10:30pm 14.8 9.9 -3.5 28 7.2 SSW 13 15 7 8 1019.8 1019.0 0.0
02/10:00pm 15.5 10.2 -3.9 26 7.6 S 15 17 8 9 1019.8 1019.0 0.0
02/09:30pm 15.7 11.5 -4.2 25 7.8 SSW 9 11 5 6 1019.7 1018.9 0.0
02/09:00pm 17.8 13.2 -4.2 22 8.8 S 11 15 6 8 1019.4 1018.6 0.0
02/08:30pm 19.6 14.7 -3.3 21 9.5 S 13 19 7 10 1018.9 1018.1 0.0
02/08:00pm 20.8 14.8 -3.0 20 10.0 S 19 28 10 15 1018.4 1017.6 0.0
02/07:30pm 21.6 15.3 -3.7 18 10.6 S 20 30 11 16 1017.9 1017.0 0.0
02/07:00pm 22.3 15.9 -4.7 16 11.2 S 20 30 11 16 1017.6 1016.7 0.0
02/06:30pm 23.4 16.6 -4.7 15 11.8 S 22 28 12 15 1017.1 1016.2 0.0
02/06:00pm 25.0 17.5 -4.3 14 12.5 SSW 26 33 14 18 1016.9 1016.0 0.0
02/05:30pm 26.2 18.3 -4.4 13 13.2 SSW 28 37 15 20 1016.7 1015.8 0.0
02/05:00pm 27.0 19.5 -4.8 12 13.7 SSW 26 35 14 19 1016.5 1015.6 0.0
02/04:30pm 27.6 19.9 -3.3 13 13.8 SSW 28 43 15 23 1016.4 1015.5 0.0
02/04:00pm 27.9 20.4 -1.1 15 13.5 SW 28 44 15 24 1016.1 1015.2 0.0
02/03:30pm 28.3 21.5 0.9 17 13.3 SW 26 33 14 18 1016.1 1015.2 0.0
02/03:00pm 28.3 21.6 1.7 18 13.0 SSW 26 39 14 21 1016.3 1015.4 0.0
02/02:30pm 28.4 21.8 1.8 18 13.1 SW 26 39 14 21 1016.4 1015.5 0.0
02/02:00pm 28.5 22.9 3.4 20 12.7 SSW 22 39 12 21 1016.8 1015.9 0.0
02/01:30pm 27.7 21.6 2.7 20 12.4 SSW 24 35 13 19 1017.4 1016.5 0.0
02/01:00pm 27.1 20.3 2.9 21 12.0 SSW 28 39 15 21 1017.9 1017.0 0.0
02/12:30pm 26.9 20.8 2.7 21 12.0 S 24 37 13 20 1018.3 1017.5 0.0
02/12:00pm 26.8 20.8 3.3 22 11.7 SSW 24 39 13 21 1018.7 1017.9 0.0
02/11:30am 25.5 20.2 2.9 23 11.1 SSW 20 32 11 17 1019.2 1018.4 0.0
02/11:00am 25.7 20.0 3.0 23 11.2 SSW 22 33 12 18 1019.4 1018.6 0.0
02/10:30am 25.6 20.5 2.9 23 11.2 S 19 30 10 16 1019.4 1018.6 0.0
02/10:00am 24.2 19.0 2.4 24 10.5 S 19 26 10 14 1019.5 1018.7 0.0
02/09:30am 23.0 16.8 1.9 25 10.0 S 24 33 13 18 1019.5 1018.7 0.0
02/09:00am 22.0 16.1 1.6 26 9.5 SSE 22 30 12 16 1019.5 1018.7 0.0
02/08:30am 20.6 15.2 1.5 28 8.8 SSE 19 28 10 15 1019.4 1018.6 0.0
02/08:00am 18.1 14.2 -1.2 27 8.2 SSE 9 13 5 7 1019.2 1018.4 0.0
02/07:30am 13.2 9.7 -6.4 25 7.1 SE 4 11 2 6 1019.1 1018.3 0.0
02/07:00am 10.8 6.0 -6.5 29 6.1 SSW 11 15 6 8 1018.5 1017.7 0.0
02/06:30am 9.3 4.3 -8.7 27 5.9 SSW 11 13 6 7 1018.0 1017.2 0.0
02/06:00am 8.2 4.0 -9.7 27 5.6 S 6 15 3 8 1016.9 1016.0 0.0
02/05:30am 10.2 6.0 -7.9 27 6.1 N 7 9 4 5 1016.1 1015.2 0.0
02/05:00am 10.9 6.4 -7.3 27 6.3 N 9 9 5 5 1015.8 1015.0 0.0
02/04:30am 11.3 5.6 -7.5 26 6.5 N 15 17 8 9 1015.8 1015.0 0.0
02/04:00am 11.4 6.1 -7.4 26 6.5 NNE 13 13 7 7 1015.8 1015.0 0.0
02/03:30am 11.3 7.6 -8.0 25 6.6 E 4 7 2 4 1016.0 1015.1 0.0
02/03:00am 10.2 7.2 -9.4 24 6.4 CALM 0 0 0 0 1016.1 1015.2 0.0
02/02:30am 10.6 6.8 -9.6 23 6.6 SW 4 7 2 4 1016.1 1015.2 0.0
02/02:00am 12.7 9.1 -7.9 23 7.2 NNE 4 7 2 4 1016.3 1015.4 0.0
02/01:30am 12.5 8.5 -8.0 23 7.1 NNE 6 7 3 4 1016.3 1015.4 0.0
02/01:00am 13.4 9.4 -7.3 23 7.4 SSE 6 7 3 4 1016.5 1015.6 0.0
02/12:30am 15.2 11.3 -6.3 22 8.0 N 6 7 3 4 1016.6 1015.7 0.0
02/12:00am 15.5 11.6 -6.7 21 8.2 N 6 7 3 4 1016.3 1015.4 0.0
 
Date/Time
EST
Temp
°C
App
Temp
°C
Dew
Point
Rel
Hum
%
Delta-T
°C
Wind Press
QNH
hPa
Press
MSL
hPa
Rain
since 9 am
mm
Dir
 
Spd
km/h
Gust
km/h
Spd
kts
Gust
kts
01/11:30pm 16.9 14.2 -5.5 21 8.7 CALM 0 0 0 0 1016.4 1015.5 0.0
01/11:00pm 17.3 14.2 -5.8 20 8.9 WNW 2 4 1 2 1016.6 1015.7 0.0
01/10:30pm 17.1 13.9 -6.7 19 9.0 E 2 4 1 2 1016.5 1015.6 0.0
01/10:00pm 18.1 14.6 -5.9 19 9.3 SSW 4 6 2 3 1016.4 1015.5 0.0
01/09:30pm 21.1 18.5 -4.9 17 10.6 CALM 0 0 0 0 1016.2 1015.3 0.0
01/09:00pm 19.9 16.8 -6.6 16 10.3 NNW 2 6 1 3 1015.8 1015.0 0.0
01/08:30pm 24.4 21.9 -3.9 15 12.2 CALM 0 0 0 0 1015.4 1014.6 0.0
01/08:00pm 25.5 23.1 -3.0 15 12.6 CALM 0 0 0 0 1015.4 1014.6 0.0
01/07:30pm 24.6 21.8 -3.7 15 12.2 N 2 2 1 1 1014.8 1014.0 0.0
01/07:00pm 26.1 22.9 -3.5 14 13.0 S 4 4 2 2 1014.9 1014.1 0.0
01/06:30pm 26.5 22.7 -5.2 12 13.5 SSW 6 6 3 3 1014.6 1013.8 0.0
01/06:00pm 28.8 25.1 -4.6 11 14.7 SW 6 9 3 5 1014.3 1013.5 0.0
01/05:30pm 29.9 25.6 -5.0 10 15.4 SSW 9 19 5 10 1014.2 1013.4 0.0
01/05:00pm 30.0 24.9 -4.9 10 15.4 WSW 13 19 7 10 1014.2 1013.4 0.0
01/04:30pm 30.5 26.2 -4.5 10 15.7 WSW 9 20 5 11 1013.9 1013.1 0.0
01/04:00pm 30.6 27.3 -4.4 10 15.7 NW 4 13 2 7 1014.0 1013.2 0.0
01/03:30pm 30.7 26.4 -4.4 10 15.8 NNW 9 15 5 8 1014.0 1013.2 0.0
01/03:00pm 30.9 26.3 -4.2 10 15.8 W 11 19 6 10 1014.0 1013.2 0.0
01/02:30pm 30.2 26.6 -3.5 11 15.3 NE 6 19 3 10 1014.3 1013.5 0.0
01/02:00pm 29.7 25.6 -2.7 12 14.9 NNE 9 17 5 9 1014.9 1014.1 0.0
01/01:30pm 28.9 24.5 -2.3 13 14.3 S 11 17 6 9 1015.6 1014.8 0.0
01/01:00pm 29.0 25.4 -2.2 13 14.3 W 7 19 4 10 1016.2 1015.3 0.0
01/12:30pm 29.1 25.5 -2.1 13 14.4 W 7 15 4 8 1016.7 1015.8 0.0
01/12:00pm 28.7 25.8 -1.4 14 14.0 E 4 9 2 5 1017.2 1016.3 0.0
01/11:30am 28.3 24.4 -1.7 14 13.9 NNW 9 17 5 9 1017.9 1017.0 0.0
01/11:00am 27.7 23.1 -1.3 15 13.4 NE 13 17 7 9 1018.1 1017.3 0.0
01/10:30am 27.1 21.6 0.8 18 12.6 N 19 30 10 16 1018.4 1017.6 0.0
01/10:00am 26.4 20.5 1.7 20 11.9 N 22 30 12 16 1018.7 1017.9 0.0
01/09:30am 24.1 18.7 2.3 24 10.5 N 20 28 11 15 1018.6 1018.1 0.0
01/09:00am 22.0 16.6 1.1 25 9.7 NNE 19 24 10 13 1018.5 1018.0 0.0
01/08:30am 18.9 13.9 -1.0 26 8.6 NE 15 20 8 11 1018.2 1017.7 0.0
01/08:00am 15.9 11.1 -2.6 28 7.5 NE 13 17 7 9 1017.9 1017.4 0.0
01/07:30am 13.4 8.5 -3.8 30 6.6 NE 13 15 7 8 1017.5 1017.0 0.0
01/07:00am 10.1 4.5 -6.2 31 5.7 NE 15 17 8 9 1017.5 1017.0 0.0
01/06:30am 8.7 3.4 -7.0 32 5.3 ENE 13 15 7 8 1017.2 1016.7 0.0
01/06:00am 8.7 4.2 -7.0 32 5.3 ENE 9 13 5 7 1016.8 1016.3 0.0
01/05:30am 8.8 3.9 -7.4 31 5.4 ENE 11 13 6 7 1015.8 1015.4 0.0
01/05:00am 10.5 4.9 -6.3 30 5.9 ENE 15 20 8 11 1016.0 1015.5 0.0
01/04:30am 11.1 6.7 -5.8 30 6.1 E 9 11 5 6 1015.7 1015.3 0.0
01/04:00am 11.4 7.0 -5.5 30 6.1 ESE 9 11 5 6 1015.3 1014.9 0.0
01/03:30am 12.3 8.4 -4.8 30 6.4 ESE 7 9 4 5 1015.5 1015.1 0.0
01/03:00am 11.5 7.5 -5.9 29 6.3 E 7 9 4 5 1015.2 1014.8 0.0
01/02:30am 11.6 7.2 -6.3 28 6.4 E 9 11 5 6 1015.5 1015.1 0.0
01/02:00am 12.9 8.2 -5.1 28 6.7 E 11 13 6 7 1015.7 1015.3 0.0
01/01:30am 13.4 9.1 -5.2 27 7.0 ENE 9 9 5 5 1015.7 1015.3 0.0
01/01:00am 13.5 9.2 -5.1 27 7.0 NE 9 9 5 5 1016.0 1015.5 0.0
01/12:30am 14.0 10.0 -5.2 26 7.2 NE 7 9 4 5 1016.3 1015.8 0.0
01/12:00am 14.9 10.5 -5.5 24 7.7 ENE 9 11 5 6 1016.5 1016.0 0.0
 
Date/Time
EST
Temp
°C
App
Temp
°C
Dew
Point
Rel
Hum
%
Delta-T
°C
Wind Press
QNH
hPa
Press
MSL
hPa
Rain
since 9 am
mm
Dir
 
Spd
km/h
Gust
km/h
Spd
kts
Gust
kts
31/11:30pm 16.4 11.8 -4.2 24 8.1 ENE 11 13 6 7 1016.5 1016.0 0.0
31/11:00pm 14.8 10.0 -6.1 23 7.8 E 11 13 6 7 1016.4 1015.9 0.0
31/10:30pm 15.7 10.9 -5.9 22 8.2 E 11 13 6 7 1016.5 1016.0 0.0
31/10:00pm 17.2 12.5 -5.3 21 8.8 ESE 11 15 6 8 1016.4 1015.9 0.0
31/09:30pm 17.8 13.1 -5.4 20 9.1 ESE 11 13 6 7 1016.3 1015.8 0.0
31/09:00pm 18.7 14.4 -4.7 20 9.4 ESE 9 9 5 5 1016.3 1015.8 0.0
31/08:30pm 20.3 16.1 -4.0 19 10.0 ESE 9 11 5 6 1016.1 1015.6 0.0
31/08:00pm 20.6 15.9 -5.3 17 10.4 E 11 13 6 7 1015.8 1015.4 0.0
31/07:30pm 22.2 17.9 -4.8 16 11.2 E 9 11 5 6 1015.5 1015.1 0.0
31/07:00pm 23.3 19.4 -4.8 15 11.7 E 7 9 4 5 1015.2 1014.8 0.0
31/06:30pm 25.0 21.1 -4.3 14 12.6 E 7 9 4 5 1014.8 1014.3 0.0
31/06:00pm 27.1 23.9 -3.7 13 13.6 E 4 9 2 5 1014.5 1014.0 0.0
31/05:30pm 27.9 24.1 -4.1 12 14.1 SE 7 15 4 8 1014.4 1013.9 0.0
31/05:00pm 28.5 24.9 -3.6 12 14.3 S 6 17 3 9 1014.4 1013.9 0.0
31/04:30pm 28.6 25.3 -1.5 14 14.0 E 6 9 3 5 1014.3 1013.8 0.0
31/04:00pm 28.9 25.8 -2.3 13 14.3 SE 4 9 2 5 1014.3 1013.8 0.0
31/03:30pm 28.3 23.6 -1.7 14 13.9 ESE 13 22 7 12 1014.4 1013.9 0.0
31/03:00pm 28.3 24.9 -0.8 15 13.7 S 7 19 4 10 1014.3 1013.8 0.0

Other Formats:

Comma delimited format used in spreadsheet applications
http://www.bom.gov.au/fwo/IDQ60801/IDQ60801.94342.axf

JavaScript Object Notation format (JSON) in row-major order
http://www.bom.gov.au/fwo/IDQ60801/IDQ60801.94342.json